createdAt,value
2017-02-28T00:00:15.712Z,979.63
2017-02-28T00:01:26.337Z,979.57
2017-02-28T00:02:37.404Z,979.53
2017-02-28T00:03:47.593Z,979.55
2017-02-28T00:04:57.346Z,979.46
2017-02-28T00:06:07.136Z,979.42
2017-02-28T00:07:17.316Z,979.37
2017-02-28T00:08:27.525Z,979.24
2017-02-28T00:09:37.715Z,979.22
2017-02-28T00:10:47.064Z,979.22
2017-02-28T00:11:57.737Z,979.25
2017-02-28T00:13:07.073Z,979.26
2017-02-28T00:14:18.146Z,979.27
2017-02-28T00:15:28.772Z,979.2
2017-02-28T00:16:38.526Z,979.11
2017-02-28T00:17:48.323Z,979.05
2017-02-28T00:18:58.512Z,979.01
2017-02-28T00:20:08.265Z,979.05
2017-02-28T00:21:18.013Z,979.05
2017-02-28T00:22:28.654Z,979.02
2017-02-28T00:23:39.321Z,978.96
2017-02-28T00:24:49.081Z,979.02
2017-02-28T00:25:59.699Z,978.96
2017-02-28T00:27:09.876Z,978.95
2017-02-28T00:28:20.504Z,978.94
2017-02-28T00:29:30.958Z,978.95
2017-02-28T00:30:41.139Z,978.98
2017-02-28T00:31:50.885Z,979.05
2017-02-28T00:33:01.509Z,979.03
2017-02-28T00:34:12.587Z,979
2017-02-28T00:35:23.015Z,978.97
2017-02-28T00:36:33.654Z,978.91
2017-02-28T00:37:43.395Z,978.93
2017-02-28T00:38:53.156Z,979.01
2017-02-28T00:40:02.477Z,979.04
2017-02-28T00:41:12.274Z,979.03
2017-02-28T00:42:22.496Z,979.02
2017-02-28T00:43:31.813Z,979.09
2017-02-28T00:44:42.438Z,979.12
2017-02-28T00:45:52.651Z,979.17
2017-02-28T00:47:02.467Z,979.2
2017-02-28T00:48:12.677Z,979.17
2017-02-28T00:49:22.903Z,979.24
2017-02-28T00:50:32.648Z,979.36
2017-02-28T00:51:43.267Z,979.37
2017-02-28T00:52:53.519Z,979.4
2017-02-28T00:54:04.130Z,979.52
2017-02-28T00:55:14.799Z,979.54
2017-02-28T00:56:25.890Z,979.59
2017-02-28T00:57:36.524Z,979.36
2017-02-28T00:58:46.324Z,979.31
2017-02-28T00:59:55.646Z,979.41
2017-02-28T01:01:06.301Z,979.43
2017-02-28T01:02:16.924Z,979.54
2017-02-28T01:03:28.012Z,979.48
2017-02-28T01:04:37.817Z,979.48
2017-02-28T01:05:48.447Z,979.61
2017-02-28T01:06:58.256Z,979.72
2017-02-28T01:08:07.584Z,979.61
2017-02-28T01:09:17.337Z,979.65
2017-02-28T01:10:27.582Z,979.57
2017-02-28T01:11:38.205Z,979.53
2017-02-28T01:12:48.397Z,979.51
2017-02-28T01:13:59.047Z,979.52
2017-02-28T01:15:08.817Z,979.46
2017-02-28T01:16:19.049Z,979.39
2017-02-28T01:17:28.819Z,979.41
2017-02-28T01:18:38.132Z,979.42
2017-02-28T01:19:48.366Z,979.35
2017-02-28T01:20:58.121Z,979.35
2017-02-28T01:22:07.938Z,979.42
2017-02-28T01:23:18.129Z,979.49
2017-02-28T01:24:28.344Z,979.54
2017-02-28T01:25:38.530Z,979.42
2017-02-28T01:26:49.601Z,979.43
2017-02-28T01:27:59.838Z,979.45
2017-02-28T01:29:10.033Z,979.52
2017-02-28T01:30:20.684Z,979.45
2017-02-28T01:31:30.437Z,979.4
2017-02-28T01:32:41.085Z,979.3
2017-02-28T01:33:52.194Z,979.25
2017-02-28T01:35:01.946Z,979.11
2017-02-28T01:36:12.145Z,979
2017-02-28T01:37:22.770Z,978.96
2017-02-28T01:38:33.410Z,978.85
2017-02-28T01:39:43.228Z,978.73
2017-02-28T01:40:53.873Z,978.72
2017-02-28T01:42:03.618Z,978.62
2017-02-28T01:43:13.837Z,978.56
2017-02-28T01:44:23.606Z,978.51
2017-02-28T01:45:33.411Z,978.54
2017-02-28T01:46:43.605Z,978.5
2017-02-28T01:47:52.920Z,978.44
2017-02-28T01:49:02.661Z,978.39
2017-02-28T01:50:13.288Z,978.39
2017-02-28T01:51:22.873Z,978.42
2017-02-28T01:52:33.060Z,978.37
2017-02-28T01:53:43.283Z,978.32
2017-02-28T01:54:53.924Z,978.36
2017-02-28T01:56:04.566Z,978.44
2017-02-28T01:57:14.539Z,978.38
2017-02-28T01:58:24.715Z,978.43
2017-02-28T01:59:35.345Z,978.38
2017-02-28T02:00:45.522Z,978.51
2017-02-28T02:01:55.707Z,978.48
2017-02-28T02:03:05.084Z,978.45
2017-02-28T02:04:14.440Z,978.45
2017-02-28T02:05:24.202Z,978.52
2017-02-28T02:06:34.387Z,978.54
2017-02-28T02:07:45.041Z,978.62
2017-02-28T02:08:54.846Z,978.66
2017-02-28T02:10:04.595Z,978.62
2017-02-28T02:11:14.344Z,978.71
2017-02-28T02:12:24.561Z,978.7
2017-02-28T02:13:33.909Z,978.65
2017-02-28T02:14:44.588Z,978.63
2017-02-28T02:15:54.772Z,978.62
2017-02-28T02:17:05.382Z,978.74
2017-02-28T02:18:15.129Z,978.7
2017-02-28T02:19:25.319Z,978.74
2017-02-28T02:20:36.436Z,978.81
2017-02-28T02:21:46.633Z,978.86
2017-02-28T02:22:56.827Z,978.7
2017-02-28T02:24:06.172Z,978.76
2017-02-28T02:25:15.952Z,978.74
2017-02-28T02:26:26.234Z,978.73
2017-02-28T02:27:35.563Z,978.73
2017-02-28T02:28:45.341Z,978.67
2017-02-28T02:29:55.542Z,978.68
2017-02-28T02:31:05.313Z,978.65
2017-02-28T02:32:15.564Z,978.66
2017-02-28T02:33:24.911Z,978.69
2017-02-28T02:34:35.114Z,978.76
2017-02-28T02:35:44.863Z,978.7
2017-02-28T02:36:54.191Z,978.71
2017-02-28T02:38:04.458Z,978.79
2017-02-28T02:39:14.254Z,978.74
2017-02-28T02:40:23.580Z,978.84
2017-02-28T02:41:32.896Z,978.76
2017-02-28T02:42:42.226Z,978.65
2017-02-28T02:43:52.027Z,978.54
2017-02-28T02:45:02.225Z,978.47
2017-02-28T02:46:11.561Z,978.55
2017-02-28T02:47:21.767Z,978.67
2017-02-28T02:48:31.096Z,978.63
2017-02-28T02:49:40.520Z,978.69
2017-02-28T02:50:50.292Z,978.46
2017-02-28T02:52:00.487Z,978.55
2017-02-28T02:53:11.128Z,978.67
2017-02-28T02:54:20.461Z,978.72
2017-02-28T02:55:30.279Z,978.67
2017-02-28T02:56:40.036Z,978.71
2017-02-28T02:57:49.821Z,978.7
2017-02-28T02:59:00.042Z,978.77
2017-02-28T03:00:09.803Z,978.86
2017-02-28T03:01:19.180Z,978.89
2017-02-28T03:02:28.530Z,978.83
2017-02-28T03:03:37.875Z,978.77
2017-02-28T03:04:47.216Z,978.7
2017-02-28T03:05:56.580Z,978.69
2017-02-28T03:07:05.986Z,978.67
2017-02-28T03:08:15.323Z,978.61
2017-02-28T03:09:24.641Z,978.56
2017-02-28T03:10:33.998Z,978.56
2017-02-28T03:11:43.327Z,978.68
2017-02-28T03:12:52.695Z,978.67
2017-02-28T03:14:02.001Z,978.66
2017-02-28T03:15:11.340Z,978.54
2017-02-28T03:16:21.107Z,978.58
2017-02-28T03:17:30.904Z,978.52
2017-02-28T03:18:40.281Z,978.44
2017-02-28T03:19:50.050Z,978.39
2017-02-28T03:20:59.395Z,978.48
2017-02-28T03:22:08.725Z,978.5
2017-02-28T03:23:18.481Z,978.44
2017-02-28T03:24:27.862Z,978.4
2017-02-28T03:25:37.219Z,978.4
2017-02-28T03:26:47.439Z,978.3
2017-02-28T03:27:57.198Z,978.31
2017-02-28T03:29:06.963Z,978.22
2017-02-28T03:30:16.352Z,978.32
2017-02-28T03:31:26.584Z,978.4
2017-02-28T03:32:36.791Z,978.51
2017-02-28T03:33:46.120Z,978.61
2017-02-28T03:34:55.467Z,978.63
2017-02-28T03:36:06.160Z,978.58
2017-02-28T03:37:15.943Z,978.62
2017-02-28T03:38:25.700Z,978.64
2017-02-28T03:39:35.463Z,978.72
2017-02-28T03:40:46.098Z,978.72
2017-02-28T03:41:55.479Z,978.71
2017-02-28T03:43:04.789Z,978.73
2017-02-28T03:44:14.118Z,978.75
2017-02-28T03:45:23.878Z,978.8
2017-02-28T03:46:33.208Z,978.77
2017-02-28T03:47:43.049Z,978.75
2017-02-28T03:48:52.381Z,978.82
2017-02-28T03:50:01.722Z,978.73
2017-02-28T03:51:11.472Z,978.81
2017-02-28T03:52:21.229Z,978.86
2017-02-28T03:53:30.621Z,978.77
2017-02-28T03:54:41.278Z,978.79
2017-02-28T03:55:50.600Z,978.85
2017-02-28T03:56:59.926Z,978.86
2017-02-28T03:58:09.242Z,978.89
2017-02-28T03:59:18.625Z,978.89
2017-02-28T04:00:28.393Z,978.93
2017-02-28T04:01:38.164Z,978.85
2017-02-28T04:02:47.927Z,978.86
2017-02-28T04:03:57.261Z,978.94
2017-02-28T04:05:07.073Z,978.9
2017-02-28T04:06:16.419Z,978.97
2017-02-28T04:07:25.772Z,979.08
2017-02-28T04:08:35.093Z,979.13
2017-02-28T04:09:44.883Z,979.13
2017-02-28T04:10:55.145Z,979.13
2017-02-28T04:12:04.897Z,978.95
2017-02-28T04:13:14.670Z,979.05
2017-02-28T04:14:24.002Z,978.98
2017-02-28T04:15:33.337Z,978.89
2017-02-28T04:16:42.718Z,978.89
2017-02-28T04:17:52.067Z,978.94
2017-02-28T04:19:01.392Z,978.87
2017-02-28T04:20:10.722Z,978.8
2017-02-28T04:21:20.050Z,978.79
2017-02-28T04:22:29.428Z,978.74
2017-02-28T04:23:38.753Z,978.72
2017-02-28T04:24:48.506Z,978.73
2017-02-28T04:25:57.850Z,978.7
2017-02-28T04:27:08.497Z,978.76
2017-02-28T04:28:17.885Z,978.78
2017-02-28T04:29:27.655Z,978.7
2017-02-28T04:30:36.959Z,978.73
2017-02-28T04:31:47.173Z,978.76
2017-02-28T04:32:56.931Z,978.87
2017-02-28T04:34:06.753Z,978.93
2017-02-28T04:35:16.521Z,978.92
2017-02-28T04:36:26.285Z,978.96
2017-02-28T04:37:35.604Z,978.91
2017-02-28T04:38:44.946Z,978.95
2017-02-28T04:39:54.754Z,979.01
2017-02-28T04:41:04.096Z,979.04
2017-02-28T04:42:13.869Z,979.07
2017-02-28T04:43:23.194Z,979.06
2017-02-28T04:44:32.975Z,979.09
2017-02-28T04:45:42.353Z,979.03
2017-02-28T04:46:52.561Z,978.98
2017-02-28T04:48:01.904Z,979.08
2017-02-28T04:49:11.254Z,979.16
2017-02-28T04:50:21.501Z,979.2
2017-02-28T04:51:30.870Z,979.26
2017-02-28T04:52:40.239Z,979.2
2017-02-28T04:53:49.589Z,979.18
2017-02-28T04:54:58.930Z,979.18
2017-02-28T04:56:08.263Z,979.09
2017-02-28T04:57:18.099Z,979.04
2017-02-28T04:58:27.429Z,978.93
2017-02-28T04:59:36.747Z,979.01
2017-02-28T05:00:46.098Z,979.01
2017-02-28T05:01:56.293Z,979.04
2017-02-28T05:03:05.815Z,979.04
2017-02-28T05:04:15.143Z,979.09
2017-02-28T05:05:24.917Z,979.12
2017-02-28T05:06:34.686Z,979.18
2017-02-28T05:07:44.007Z,979.23
2017-02-28T05:08:53.383Z,979.27
2017-02-28T05:10:03.146Z,979.2
2017-02-28T05:11:12.463Z,979.3
2017-02-28T05:12:22.252Z,979.23
2017-02-28T05:13:31.590Z,979.25
2017-02-28T05:14:40.983Z,979.2
2017-02-28T05:15:50.320Z,979.14
2017-02-28T05:16:59.656Z,979.1
2017-02-28T05:18:08.966Z,979.07
2017-02-28T05:19:18.291Z,979.01
2017-02-28T05:20:28.108Z,979.11
2017-02-28T05:21:37.430Z,979.2
2017-02-28T05:22:47.189Z,979.22
2017-02-28T05:23:57.392Z,979.23
2017-02-28T05:25:06.725Z,979.21
2017-02-28T05:26:16.099Z,979.24
2017-02-28T05:27:25.432Z,979.24
2017-02-28T05:28:34.764Z,979.29
2017-02-28T05:29:44.074Z,979.26
2017-02-28T05:30:53.399Z,979.26
2017-02-28T05:32:02.779Z,979.28
2017-02-28T05:33:12.101Z,979.24
2017-02-28T05:34:22.326Z,979.24
2017-02-28T05:35:32.092Z,979.28
2017-02-28T05:36:41.413Z,979.14
2017-02-28T05:37:50.801Z,979.22
2017-02-28T05:39:00.555Z,979.05
2017-02-28T05:40:09.880Z,979.15
2017-02-28T05:41:19.200Z,979.18
2017-02-28T05:42:29.391Z,979.11
2017-02-28T05:43:39.192Z,979.16
2017-02-28T05:44:48.537Z,979.25
2017-02-28T05:45:57.881Z,979.22
2017-02-28T05:47:07.652Z,979.19
2017-02-28T05:48:16.993Z,979.16
2017-02-28T05:49:26.809Z,979.19
2017-02-28T05:50:36.587Z,979.24
2017-02-28T05:51:46.352Z,979.27
2017-02-28T05:52:55.670Z,979.3
2017-02-28T05:54:04.991Z,979.29
2017-02-28T05:55:14.380Z,979.33
2017-02-28T05:56:23.712Z,979.29
2017-02-28T05:57:33.042Z,979.2
2017-02-28T05:58:42.824Z,979.24
2017-02-28T05:59:52.136Z,979.25
2017-02-28T06:01:01.504Z,979.33
2017-02-28T06:02:11.271Z,979.32
2017-02-28T06:03:21.036Z,979.43
2017-02-28T06:04:30.365Z,979.47
2017-02-28T06:05:39.678Z,979.55
2017-02-28T06:06:49.052Z,979.69
2017-02-28T06:07:58.364Z,979.78
2017-02-28T06:09:08.152Z,979.8
2017-02-28T06:10:19.227Z,979.84
2017-02-28T06:11:28.551Z,979.86
2017-02-28T06:12:38.389Z,979.87
2017-02-28T06:13:48.182Z,979.89
2017-02-28T06:14:58.408Z,979.84
2017-02-28T06:16:08.205Z,979.91
2017-02-28T06:17:17.546Z,979.99
2017-02-28T06:18:26.938Z,979.94
2017-02-28T06:19:36.716Z,979.94
2017-02-28T06:20:46.046Z,979.9
2017-02-28T06:21:55.374Z,979.91
2017-02-28T06:23:04.688Z,980.01
2017-02-28T06:24:14.509Z,979.91
2017-02-28T06:25:24.722Z,979.91
2017-02-28T06:26:34.052Z,979.89
2017-02-28T06:27:43.831Z,979.92
2017-02-28T06:28:54.040Z,979.98
2017-02-28T06:30:04.295Z,979.97
2017-02-28T06:31:14.107Z,980
2017-02-28T06:32:23.425Z,979.92
2017-02-28T06:33:33.186Z,979.94
2017-02-28T06:34:42.500Z,979.96
2017-02-28T06:35:51.872Z,979.97
2017-02-28T06:37:01.648Z,979.99
2017-02-28T06:38:11.431Z,980.11
2017-02-28T06:39:20.772Z,980.06
2017-02-28T06:40:30.085Z,980.07
2017-02-28T06:41:39.458Z,980.05
2017-02-28T06:42:49.224Z,980.09
2017-02-28T06:43:58.560Z,980.04
2017-02-28T06:45:07.900Z,980.1
2017-02-28T06:46:17.658Z,980.08
2017-02-28T06:47:27.036Z,980.13
2017-02-28T06:48:36.373Z,980.12
2017-02-28T06:49:45.686Z,980.14
2017-02-28T06:50:55.042Z,980.13
2017-02-28T06:52:04.376Z,980.12
2017-02-28T06:53:14.210Z,980.07
2017-02-28T06:54:23.991Z,980.03
2017-02-28T06:55:33.328Z,980.07
2017-02-28T06:56:42.657Z,980
2017-02-28T06:57:52.423Z,979.98
2017-02-28T06:59:01.798Z,980.07
2017-02-28T07:00:11.541Z,980.06
2017-02-28T07:01:20.872Z,980.08
2017-02-28T07:02:30.633Z,980.1
2017-02-28T07:03:41.272Z,980.08
2017-02-28T07:04:50.645Z,980.05
2017-02-28T07:05:59.983Z,980.03
2017-02-28T07:07:09.728Z,980.05
2017-02-28T07:08:19.057Z,980.06
2017-02-28T07:09:29.706Z,980
2017-02-28T07:10:39.079Z,980.05
2017-02-28T07:11:48.392Z,980.05
2017-02-28T07:12:57.725Z,980.12
2017-02-28T07:14:07.050Z,980.07
2017-02-28T07:15:16.399Z,980.11
2017-02-28T07:16:25.769Z,980.05
2017-02-28T07:17:35.536Z,980.03
2017-02-28T07:18:44.871Z,980.08
2017-02-28T07:19:54.624Z,980.14
2017-02-28T07:21:03.961Z,980.12
2017-02-28T07:22:13.783Z,980.1
2017-02-28T07:23:23.559Z,980.16
2017-02-28T07:24:32.876Z,980.07
2017-02-28T07:25:42.194Z,980.14
2017-02-28T07:26:51.519Z,980.16
2017-02-28T07:28:01.329Z,980.07
2017-02-28T07:29:10.661Z,980.17
2017-02-28T07:30:19.983Z,980.07
2017-02-28T07:31:29.760Z,980.09
2017-02-28T07:32:39.084Z,980.06
2017-02-28T07:33:48.448Z,980.17
2017-02-28T07:34:57.787Z,980.05
2017-02-28T07:36:07.563Z,980.26
2017-02-28T07:37:16.877Z,980.33
2017-02-28T07:38:26.658Z,980.23
2017-02-28T07:39:36.475Z,980.34
2017-02-28T07:40:45.780Z,980.32
2017-02-28T07:41:55.550Z,980.28
2017-02-28T07:43:05.766Z,980.39
2017-02-28T07:44:15.091Z,980.44
2017-02-28T07:45:24.457Z,980.39
2017-02-28T07:46:33.781Z,980.38
2017-02-28T07:47:43.535Z,980.48
2017-02-28T07:48:53.308Z,980.39
2017-02-28T07:50:03.068Z,980.38
2017-02-28T07:51:12.438Z,980.37
2017-02-28T07:52:21.759Z,980.45
2017-02-28T07:53:31.072Z,980.39
2017-02-28T07:54:40.396Z,980.42
2017-02-28T07:55:49.749Z,980.5
2017-02-28T07:56:59.675Z,980.54
2017-02-28T07:58:09.001Z,980.52
2017-02-28T07:59:18.346Z,980.54
2017-02-28T08:00:28.099Z,980.59
2017-02-28T08:01:37.428Z,980.51
2017-02-28T08:02:47.271Z,980.57
2017-02-28T08:03:56.630Z,980.57
2017-02-28T08:05:06.852Z,980.59
2017-02-28T08:06:16.189Z,980.66
2017-02-28T08:07:26.418Z,980.52
2017-02-28T08:08:36.235Z,980.56
2017-02-28T08:09:45.564Z,980.57
2017-02-28T08:10:54.893Z,980.48
2017-02-28T08:12:04.214Z,980.65
2017-02-28T08:13:13.995Z,980.57
2017-02-28T08:14:23.836Z,980.52
2017-02-28T08:15:34.067Z,980.52
2017-02-28T08:16:44.262Z,980.5
2017-02-28T08:17:54.051Z,980.56
2017-02-28T08:19:03.388Z,980.5
2017-02-28T08:20:13.216Z,980.44
2017-02-28T08:21:22.991Z,980.37
2017-02-28T08:22:32.756Z,980.3
2017-02-28T08:23:42.077Z,980.41
2017-02-28T08:24:51.442Z,980.39
2017-02-28T08:26:00.815Z,980.42
2017-02-28T08:27:10.149Z,980.44
2017-02-28T08:28:19.475Z,980.43
2017-02-28T08:29:28.807Z,980.38
2017-02-28T08:30:38.572Z,980.31
2017-02-28T08:31:47.949Z,980.19
2017-02-28T08:32:57.286Z,980.37
2017-02-28T08:34:07.940Z,980.35
2017-02-28T08:35:17.251Z,980.21
2017-02-28T08:36:27.018Z,980.17
2017-02-28T08:37:36.827Z,980.2
2017-02-28T08:38:46.147Z,980.27
2017-02-28T08:39:55.937Z,980.27
2017-02-28T08:41:05.274Z,980.18
2017-02-28T08:42:15.475Z,980.26
2017-02-28T08:43:24.851Z,980.3
2017-02-28T08:44:35.069Z,980.33
2017-02-28T08:45:44.822Z,980.31
2017-02-28T08:46:55.516Z,980.21
2017-02-28T08:48:04.849Z,980.26
2017-02-28T08:49:14.662Z,980.17
2017-02-28T08:50:24.417Z,980.16
2017-02-28T08:51:34.632Z,980.25
2017-02-28T08:52:43.961Z,980.27
2017-02-28T08:53:53.294Z,980.24
2017-02-28T08:55:04.024Z,980.19
2017-02-28T08:56:13.345Z,980.3
2017-02-28T08:57:23.994Z,980.45
2017-02-28T08:58:33.315Z,980.32
2017-02-28T08:59:42.624Z,980.28
2017-02-28T09:00:52.433Z,980.21
2017-02-28T09:02:02.639Z,980.28
2017-02-28T09:03:11.952Z,980.26
2017-02-28T09:04:21.333Z,980.25
2017-02-28T09:05:30.650Z,980.21
2017-02-28T09:06:40.443Z,980.33
2017-02-28T09:07:50.209Z,980.21
2017-02-28T09:09:00.434Z,980.3
2017-02-28T09:10:10.659Z,980.14
2017-02-28T09:11:20.433Z,980.35
2017-02-28T09:12:29.817Z,980.27
2017-02-28T09:13:39.147Z,980.22
2017-02-28T09:14:48.912Z,980.36
2017-02-28T09:15:58.258Z,980.52
2017-02-28T09:17:08.462Z,980.46
2017-02-28T09:18:17.865Z,980.31
2017-02-28T09:19:28.520Z,980.24
2017-02-28T09:20:38.297Z,980.29
2017-02-28T09:21:48.498Z,980.22
2017-02-28T09:22:58.299Z,980.06
2017-02-28T09:24:08.109Z,980.39
2017-02-28T09:25:17.470Z,980.36
2017-02-28T09:26:26.791Z,980.3
2017-02-28T09:27:36.122Z,980.24
2017-02-28T09:28:45.885Z,980.17
2017-02-28T09:29:55.706Z,980.21
2017-02-28T09:31:05.032Z,980.24
2017-02-28T09:32:14.356Z,980.27
2017-02-28T09:33:23.682Z,980.32
2017-02-28T09:34:33.011Z,980.39
2017-02-28T09:35:42.377Z,980.34
2017-02-28T09:36:51.730Z,980.42
2017-02-28T09:38:01.055Z,980.35
2017-02-28T09:39:10.397Z,980.34
2017-02-28T09:40:20.162Z,980.25
2017-02-28T09:41:29.535Z,980.37
2017-02-28T09:42:38.852Z,980.28
2017-02-28T09:43:48.617Z,980.34
2017-02-28T09:44:57.958Z,980.42
2017-02-28T09:46:07.284Z,980.35
2017-02-28T09:47:17.113Z,980.22
2017-02-28T09:48:26.434Z,980.29
2017-02-28T09:49:36.623Z,980.34
2017-02-28T09:50:46.400Z,980.25
2017-02-28T09:51:55.729Z,980.33
2017-02-28T09:53:05.095Z,980.31
2017-02-28T09:54:16.072Z,980.28
2017-02-28T09:55:25.829Z,980.22
2017-02-28T09:56:35.162Z,980.3
2017-02-28T09:57:44.923Z,980.42
2017-02-28T09:58:54.293Z,980.3
2017-02-28T10:00:04.071Z,980.35
2017-02-28T10:01:13.835Z,980.38
2017-02-28T10:02:24.068Z,980.38
2017-02-28T10:03:33.878Z,980.34
2017-02-28T10:04:43.242Z,980.42
2017-02-28T10:05:53.000Z,980.38
2017-02-28T10:07:02.775Z,980.32
2017-02-28T10:08:12.542Z,980.36
2017-02-28T10:09:22.306Z,980.34
2017-02-28T10:10:31.685Z,980.37
2017-02-28T10:11:41.014Z,980.44
2017-02-28T10:12:50.349Z,980.38
2017-02-28T10:14:00.563Z,980.39
2017-02-28T10:15:10.330Z,980.33
2017-02-28T10:16:19.775Z,980.33
2017-02-28T10:17:29.100Z,980.42
2017-02-28T10:18:38.435Z,980.33
2017-02-28T10:19:47.766Z,980.38
2017-02-28T10:20:57.523Z,980.42
2017-02-28T10:22:06.916Z,980.34
2017-02-28T10:23:16.682Z,980.24
2017-02-28T10:24:26.927Z,980.18
2017-02-28T10:25:36.728Z,980.23
2017-02-28T10:26:46.065Z,980.21
2017-02-28T10:27:55.870Z,980.17
2017-02-28T10:29:05.204Z,980.27
2017-02-28T10:30:14.537Z,980.2
2017-02-28T10:31:24.314Z,980.23
2017-02-28T10:32:33.627Z,980.19
2017-02-28T10:33:43.451Z,980.18
2017-02-28T10:34:53.645Z,980.31
2017-02-28T10:36:03.406Z,980.23
2017-02-28T10:37:12.744Z,980.33
2017-02-28T10:38:22.069Z,980.28
2017-02-28T10:39:31.465Z,980.33
2017-02-28T10:40:41.243Z,980.27
2017-02-28T10:41:50.567Z,980.35
2017-02-28T10:43:00.349Z,980.33
2017-02-28T10:44:09.726Z,980.44
2017-02-28T10:45:19.560Z,980.24
2017-02-28T10:46:28.884Z,980.28
2017-02-28T10:47:38.653Z,980.27
2017-02-28T10:48:47.996Z,980.24
2017-02-28T10:49:58.204Z,980.36
2017-02-28T10:51:08.026Z,980.28
2017-02-28T10:52:17.354Z,980.32
2017-02-28T10:53:26.664Z,980.29
2017-02-28T10:54:36.429Z,980.3
2017-02-28T10:55:46.398Z,980.33
2017-02-28T10:56:55.768Z,980.34
2017-02-28T10:58:05.112Z,980.26
2017-02-28T10:59:14.437Z,980.34
2017-02-28T11:00:24.640Z,980.27
2017-02-28T11:01:33.980Z,980.18
2017-02-28T11:02:43.341Z,980.1
2017-02-28T11:03:52.667Z,980.11
2017-02-28T11:05:02.004Z,980.12
2017-02-28T11:06:11.349Z,980.07
2017-02-28T11:07:22.030Z,980.13
2017-02-28T11:08:31.396Z,980.03
2017-02-28T11:09:41.621Z,980.07
2017-02-28T11:10:50.937Z,980.16
2017-02-28T11:12:00.718Z,980.24
2017-02-28T11:13:10.488Z,980.15
2017-02-28T11:14:19.957Z,980.13
2017-02-28T11:15:29.266Z,980.18
2017-02-28T11:16:38.588Z,980.23
2017-02-28T11:17:47.909Z,980.17
2017-02-28T11:18:58.130Z,980.27
2017-02-28T11:20:07.514Z,980.24
2017-02-28T11:21:16.841Z,980.32
2017-02-28T11:22:26.613Z,980.27
2017-02-28T11:23:35.940Z,980.22
2017-02-28T11:24:45.264Z,980.32
2017-02-28T11:25:55.189Z,980.23
2017-02-28T11:27:04.498Z,980.26
2017-02-28T11:28:13.812Z,980.31
2017-02-28T11:29:23.573Z,980.21
2017-02-28T11:30:33.341Z,980.25
2017-02-28T11:31:42.726Z,980.2
2017-02-28T11:32:52.048Z,980.16
2017-02-28T11:34:01.392Z,980.16
2017-02-28T11:35:11.163Z,980.11
2017-02-28T11:36:20.492Z,980.17
2017-02-28T11:37:30.753Z,980.14
2017-02-28T11:38:40.074Z,980.12
2017-02-28T11:39:49.439Z,980.04
2017-02-28T11:40:58.769Z,980.02
2017-02-28T11:42:08.978Z,979.99
2017-02-28T11:43:18.538Z,980.02
2017-02-28T11:44:28.304Z,979.92
2017-02-28T11:45:37.630Z,979.82
2017-02-28T11:46:47.382Z,979.83
2017-02-28T11:47:56.704Z,979.82
2017-02-28T11:49:06.085Z,979.94
2017-02-28T11:50:16.330Z,979.9
2017-02-28T11:51:25.654Z,979.95
2017-02-28T11:52:35.419Z,979.98
2017-02-28T11:53:44.744Z,979.97
2017-02-28T11:54:54.546Z,980
2017-02-28T11:56:04.352Z,980.06
2017-02-28T11:57:14.137Z,979.92
2017-02-28T11:58:23.909Z,979.93
2017-02-28T11:59:33.663Z,980.04
2017-02-28T12:00:43.036Z,979.97
2017-02-28T12:01:52.812Z,979.88
2017-02-28T12:03:03.035Z,979.92
2017-02-28T12:04:12.359Z,979.92
2017-02-28T12:05:21.688Z,979.93
2017-02-28T12:06:31.502Z,979.97
2017-02-28T12:07:41.723Z,979.84
2017-02-28T12:08:51.064Z,979.67
2017-02-28T12:10:00.397Z,979.83
2017-02-28T12:11:09.723Z,979.84
2017-02-28T12:12:19.544Z,979.82
2017-02-28T12:13:29.297Z,979.75
2017-02-28T12:14:38.622Z,979.68
2017-02-28T12:15:48.379Z,979.64
2017-02-28T12:16:57.713Z,979.64
2017-02-28T12:18:07.086Z,979.61
2017-02-28T12:19:16.407Z,979.67
2017-02-28T12:20:25.742Z,979.63
2017-02-28T12:21:35.521Z,979.6
2017-02-28T12:22:44.893Z,979.52
2017-02-28T12:23:54.711Z,979.46
2017-02-28T12:25:04.485Z,979.51
2017-02-28T12:26:14.253Z,979.53
2017-02-28T12:27:23.579Z,979.37
2017-02-28T12:28:33.336Z,979.31
2017-02-28T12:29:42.698Z,979.29
2017-02-28T12:30:52.053Z,979.37
2017-02-28T12:32:02.256Z,979.48
2017-02-28T12:33:11.604Z,979.37
2017-02-28T12:34:21.411Z,979.37
2017-02-28T12:35:31.234Z,979.4
2017-02-28T12:36:41.023Z,979.34
2017-02-28T12:37:50.802Z,979.39
2017-02-28T12:39:00.171Z,979.28
2017-02-28T12:40:09.496Z,979.34
2017-02-28T12:41:19.307Z,979.37
2017-02-28T12:42:29.062Z,979.33
2017-02-28T12:43:38.388Z,979.41
2017-02-28T12:44:48.180Z,979.32
2017-02-28T12:45:57.524Z,979.23
2017-02-28T12:47:07.779Z,979.22
2017-02-28T12:48:17.099Z,979.11
2017-02-28T12:49:26.858Z,979.17
2017-02-28T12:50:36.197Z,979.07
2017-02-28T12:51:46.436Z,979.16
2017-02-28T12:52:56.245Z,979.1
2017-02-28T12:54:06.027Z,979.09
2017-02-28T12:55:15.778Z,979.09
2017-02-28T12:56:25.529Z,979.05
2017-02-28T12:57:35.750Z,979.04
2017-02-28T12:58:45.124Z,979.05
2017-02-28T12:59:54.433Z,978.94
2017-02-28T13:01:03.753Z,979
2017-02-28T13:02:13.534Z,978.9
2017-02-28T13:03:23.316Z,978.88
2017-02-28T13:04:32.709Z,978.91
2017-02-28T13:05:42.470Z,978.93
2017-02-28T13:06:52.244Z,978.94
2017-02-28T13:08:02.440Z,978.85
2017-02-28T13:09:11.758Z,978.96
2017-02-28T13:10:21.123Z,978.85
2017-02-28T13:11:30.884Z,978.86
2017-02-28T13:12:40.234Z,978.86
2017-02-28T13:13:50.015Z,978.93
2017-02-28T13:14:59.343Z,978.88
2017-02-28T13:16:09.641Z,978.81
2017-02-28T13:17:19.442Z,978.85
2017-02-28T13:18:28.772Z,978.84
2017-02-28T13:19:39.435Z,978.78
2017-02-28T13:20:48.765Z,978.77
2017-02-28T13:21:58.159Z,978.8
2017-02-28T13:23:07.504Z,978.79
2017-02-28T13:24:16.830Z,978.78
2017-02-28T13:25:26.158Z,978.82
2017-02-28T13:26:36.348Z,978.77
2017-02-28T13:27:46.153Z,978.78
2017-02-28T13:28:55.489Z,978.79
2017-02-28T13:30:05.250Z,978.83
2017-02-28T13:31:15.009Z,978.86
2017-02-28T13:32:24.314Z,978.84
2017-02-28T13:33:33.685Z,978.87
2017-02-28T13:34:43.884Z,978.81
2017-02-28T13:35:53.645Z,978.79
2017-02-28T13:37:03.418Z,978.93
2017-02-28T13:38:13.196Z,978.81
2017-02-28T13:39:22.572Z,978.76
2017-02-28T13:40:31.898Z,978.77
2017-02-28T13:41:41.698Z,978.84
2017-02-28T13:42:51.020Z,978.74
2017-02-28T13:44:00.341Z,978.72
2017-02-28T13:45:10.150Z,978.8
2017-02-28T13:46:19.906Z,978.87
2017-02-28T13:47:29.261Z,978.77
2017-02-28T13:48:38.590Z,978.66
2017-02-28T13:49:47.923Z,978.75
2017-02-28T13:50:57.288Z,978.63
2017-02-28T13:52:07.066Z,978.62
2017-02-28T13:53:16.387Z,978.55
2017-02-28T13:54:26.593Z,978.46
2017-02-28T13:55:36.356Z,978.45
2017-02-28T13:56:46.187Z,978.48
2017-02-28T13:57:55.510Z,978.53
2017-02-28T13:59:05.744Z,978.42
2017-02-28T14:00:15.954Z,978.45
2017-02-28T14:01:25.283Z,978.42
2017-02-28T14:02:35.596Z,978.4
2017-02-28T14:03:44.944Z,978.37
2017-02-28T14:04:54.715Z,978.35
2017-02-28T14:06:04.492Z,978.27
2017-02-28T14:07:13.837Z,978.26
2017-02-28T14:08:23.638Z,978.28
2017-02-28T14:09:32.967Z,978.22
2017-02-28T14:10:43.189Z,978.21
2017-02-28T14:11:52.966Z,978.19
2017-02-28T14:13:02.291Z,978.21
2017-02-28T14:14:11.652Z,978.17
2017-02-28T14:15:21.433Z,978.18
2017-02-28T14:16:31.187Z,978.15
2017-02-28T14:17:40.518Z,978.15
2017-02-28T14:18:50.281Z,978.12
2017-02-28T14:20:00.104Z,978.16
2017-02-28T14:21:09.872Z,978.17
2017-02-28T14:22:19.197Z,978.07
2017-02-28T14:23:28.545Z,978.04
2017-02-28T14:24:39.208Z,978.02
2017-02-28T14:25:48.584Z,978.06
2017-02-28T14:26:57.932Z,978.07
2017-02-28T14:28:08.146Z,978.16
2017-02-28T14:29:17.919Z,978.13
2017-02-28T14:30:27.289Z,978.09
2017-02-28T14:31:37.098Z,978.09
2017-02-28T14:32:46.855Z,978.07